Time;durP1;ratioP1;P1;durP2;ratioP2;P2;SDS_P1;SDS_P2;PMS_P1;PMS_P2;Temp;Humidity;BMP_temperature;BMP_pressure;BME280_temperature;BME280_humidity;BME280_pressure;Samples;Min_cycle;Max_cycle;Signal;HPM_P1;HPM_P2
2022/10/17 00:00:17;;;;;;;28.43;26.90;;;;;;;;;;5138568;27;20456;-80
2022/10/17 00:02:44;;;;;;;28.77;27.07;;;;;;;;;;5137183;27;20489;-81
2022/10/17 00:05:13;;;;;;;27.20;25.60;;;;;;;;;;5138010;27;20419;-79
2022/10/17 00:07:40;;;;;;;29.37;27.67;;;;;;;;;;5138578;27;20880;-81
2022/10/17 00:10:08;;;;;;;29.97;28.00;;;;;;;;;;5138427;27;20456;-80
2022/10/17 00:12:36;;;;;;;29.90;28.20;;;;;;;;;;5137138;27;20497;-81
2022/10/17 00:15:04;;;;;;;29.17;27.37;;;;;;;;;;5138508;27;20801;-80
2022/10/17 00:17:32;;;;;;;29.57;27.77;;;;;;;;;;5137599;27;20487;-80
2022/10/17 00:19:59;;;;;;;29.47;27.57;;;;;;;;;;5138288;27;20451;-81
2022/10/17 00:22:28;;;;;;;29.43;27.70;;;;;;;;;;5137588;27;20468;-81
2022/10/17 00:24:55;;;;;;;29.10;27.43;;;;;;;;;;5138031;27;20455;-80
2022/10/17 00:27:23;;;;;;;29.80;28.10;;;;;;;;;;5137975;27;20777;-80
2022/10/17 00:29:51;;;;;;;29.83;28.20;;;;;;;;;;5137879;27;20449;-79
2022/10/17 00:32:18;;;;;;;30.87;28.87;;;;;;;;;;5137382;27;20482;-80
2022/10/17 00:34:46;;;;;;;30.30;28.50;;;;;;;;;;5137860;27;20419;-80
2022/10/17 00:37:13;;;;;;;31.93;29.60;;;;;;;;;;5138329;27;20419;-80
2022/10/17 00:39:42;;;;;;;31.50;29.37;;;;;;;;;;5138234;27;20448;-79
2022/10/17 00:42:11;;;;;;;29.50;27.70;;;;;;;;;;5137374;27;20444;-80
2022/10/17 00:44:57;;;;;;;30.30;28.40;;;;;;;;;;5138124;27;20819;-80
2022/10/17 00:47:25;;;;;;;30.73;28.83;;;;;;;;;;5137069;27;20439;-79
2022/10/17 00:49:52;;;;;;;30.67;28.67;;;;;;;;;;5137606;27;20419;-80
2022/10/17 00:52:22;;;;;;;31.10;28.80;;;;;;;;;;5137210;27;20817;-80
2022/10/17 00:54:54;;;;;;;29.50;27.50;;;;;;;;;;5136490;27;20495;-80
2022/10/17 00:57:21;;;;;;;32.27;30.27;;;;;;;;;;5137895;27;20459;-80
2022/10/17 00:59:51;;;;;;;31.37;29.07;;;;;;;;;;5137771;27;20460;-80
2022/10/17 01:02:20;;;;;;;30.67;28.80;;;;;;;;;;5136649;27;20418;-81
2022/10/17 01:04:49;;;;;;;31.47;29.37;;;;;;;;;;5137545;27;20452;-81
2022/10/17 01:07:17;;;;;;;31.90;29.60;;;;;;;;;;5137280;27;20481;-80
2022/10/17 01:09:46;;;;;;;30.00;28.00;;;;;;;;;;5137761;27;20434;-79
2022/10/17 01:12:17;;;;;;;28.87;26.97;;;;;;;;;;5136684;27;20533;-81
2022/10/17 01:14:48;;;;;;;30.10;28.20;;;;;;;;;;5137942;27;21141;-80
2022/10/17 01:17:19;;;;;;;30.83;28.83;;;;;;;;;;5136596;27;21052;-80
2022/10/17 01:19:58;;;;;;;29.23;27.53;;;;;;;;;;5137881;27;20440;-80
2022/10/17 01:22:27;;;;;;;30.13;28.33;;;;;;;;;;5136519;27;20431;-79
2022/10/17 01:25:03;;;;;;;30.80;28.73;;;;;;;;;;5137497;27;20857;-80
2022/10/17 01:27:46;;;;;;;30.67;28.53;;;;;;;;;;5137036;27;20778;-81
2022/10/17 01:30:25;;;;;;;29.40;27.60;;;;;;;;;;5137752;27;20442;-81
2022/10/17 01:32:55;;;;;;;29.57;27.77;;;;;;;;;;5136690;27;20495;-81
2022/10/17 01:35:26;;;;;;;30.43;28.47;;;;;;;;;;5136740;27;20453;-81
2022/10/17 01:37:56;;;;;;;29.03;27.13;;;;;;;;;;5136913;27;20441;-81
2022/10/17 01:40:26;;;;;;;28.93;27.13;;;;;;;;;;5137259;27;20439;-81
2022/10/17 01:42:56;;;;;;;29.97;27.67;;;;;;;;;;5136308;27;20477;-80
2022/10/17 01:45:27;;;;;;;31.90;29.90;;;;;;;;;;5137918;27;20444;-80
2022/10/17 01:47:56;;;;;;;30.00;28.10;;;;;;;;;;5141002;27;20429;-80
2022/10/17 01:50:25;;;;;;;32.00;29.83;;;;;;;;;;5140560;27;20520;-80
2022/10/17 01:52:54;;;;;;;32.23;30.23;;;;;;;;;;5140210;27;20495;-81
2022/10/17 01:55:23;;;;;;;31.20;29.07;;;;;;;;;;5140811;27;20441;-80
2022/10/17 01:57:51;;;;;;;31.90;30.00;;;;;;;;;;5141195;27;20452;-81
2022/10/17 02:00:20;;;;;;;30.43;28.47;;;;;;;;;;5140697;27;20485;-80
2022/10/17 02:02:49;;;;;;;31.67;29.40;;;;;;;;;;5140066;27;20460;-81
2022/10/17 02:05:19;;;;;;;32.30;30.20;;;;;;;;;;5140424;27;20925;-80
2022/10/17 02:07:47;;;;;;;32.93;30.93;;;;;;;;;;5141004;27;20423;-80
2022/10/17 02:10:17;;;;;;;31.33;29.43;;;;;;;;;;5140604;27;20423;-81
2022/10/17 02:12:50;;;;;;;32.57;30.60;;;;;;;;;;5138733;27;20496;-80
2022/10/17 02:15:26;;;;;;;32.17;30.03;;;;;;;;;;5140657;27;20428;-79
2022/10/17 02:17:58;;;;;;;30.57;28.70;;;;;;;;;;5140617;27;20447;-80
2022/10/17 02:20:31;;;;;;;31.47;29.53;;;;;;;;;;5140514;27;20437;-81
2022/10/17 02:23:01;;;;;;;32.63;30.33;;;;;;;;;;5139108;27;20510;-81
2022/10/17 02:25:35;;;;;;;32.97;30.67;;;;;;;;;;5140029;27;20464;-80
2022/10/17 02:28:08;;;;;;;32.87;30.70;;;;;;;;;;5139720;27;20453;-80
2022/10/17 02:30:37;;;;;;;32.27;30.17;;;;;;;;;;5140039;27;20432;-80
2022/10/17 02:33:07;;;;;;;31.40;29.47;;;;;;;;;;5139207;27;20518;-79
2022/10/17 02:35:39;;;;;;;31.10;29.20;;;;;;;;;;5139487;27;20948;-80
2022/10/17 02:38:07;;;;;;;33.33;30.43;;;;;;;;;;5140132;27;20446;-80
2022/10/17 02:40:36;;;;;;;32.17;29.97;;;;;;;;;;5140179;27;20447;-81
2022/10/17 02:43:04;;;;;;;31.00;29.13;;;;;;;;;;5139305;27;20491;-80
2022/10/17 02:45:34;;;;;;;30.87;28.87;;;;;;;;;;5140357;27;20460;-80
2022/10/17 02:48:04;;;;;;;31.10;29.20;;;;;;;;;;5140281;27;20435;-80
2022/10/17 02:50:36;;;;;;;31.10;28.90;;;;;;;;;;5139390;27;20460;-80
2022/10/17 02:53:07;;;;;;;30.73;28.77;;;;;;;;;;5138775;27;20516;-80
2022/10/17 02:55:36;;;;;;;31.20;29.00;;;;;;;;;;5139288;27;20478;-80
2022/10/17 02:58:07;;;;;;;29.43;27.73;;;;;;;;;;5139531;27;20457;-80
2022/10/17 03:00:35;;;;;;;30.63;28.63;;;;;;;;;;5139079;27;20957;-81
2022/10/17 03:03:02;;;;;;;31.00;29.20;;;;;;;;;;5138980;27;20459;-81
2022/10/17 03:05:30;;;;;;;31.07;29.00;;;;;;;;;;5139700;27;20472;-81
2022/10/17 03:07:57;;;;;;;32.70;30.53;;;;;;;;;;5139942;27;20447;-80
2022/10/17 03:10:26;;;;;;;31.17;29.17;;;;;;;;;;5139815;27;20451;-80
2022/10/17 03:12:53;;;;;;;31.93;29.93;;;;;;;;;;5138942;27;20480;-80
2022/10/17 03:15:21;;;;;;;32.40;30.10;;;;;;;;;;5139274;27;20871;-80
2022/10/17 03:17:48;;;;;;;32.60;30.60;;;;;;;;;;5139529;27;20449;-80
2022/10/17 03:20:15;;;;;;;33.03;30.73;;;;;;;;;;5139819;27;20444;-80
2022/10/17 03:22:42;;;;;;;32.90;30.70;;;;;;;;;;5138909;27;20463;-80
2022/10/17 03:25:10;;;;;;;32.67;30.57;;;;;;;;;;5138724;27;20467;-80
2022/10/17 03:27:38;;;;;;;32.30;30.00;;;;;;;;;;5139011;27;20912;-79
2022/10/17 03:30:06;;;;;;;31.23;29.07;;;;;;;;;;5139458;27;20436;-79
2022/10/17 03:32:34;;;;;;;32.17;30.07;;;;;;;;;;5138362;27;20495;-80
2022/10/17 03:35:01;;;;;;;30.90;29.00;;;;;;;;;;5139208;27;20810;-80
2022/10/17 03:37:29;;;;;;;30.10;28.27;;;;;;;;;;5139451;27;20442;-80
2022/10/17 03:39:56;;;;;;;32.37;30.07;;;;;;;;;;5139345;27;20445;-80
2022/10/17 03:42:24;;;;;;;32.77;30.67;;;;;;;;;;5138309;27;20449;-80
2022/10/17 03:44:53;;;;;;;33.07;30.77;;;;;;;;;;5139078;27;20443;-80
2022/10/17 03:47:20;;;;;;;33.40;31.17;;;;;;;;;;5139098;27;20448;-79
2022/10/17 03:49:47;;;;;;;34.03;31.83;;;;;;;;;;5138986;27;20820;-79
2022/10/17 03:52:15;;;;;;;31.23;29.03;;;;;;;;;;5138190;27;20454;-80
2022/10/17 03:54:43;;;;;;;32.17;29.97;;;;;;;;;;5139433;27;20449;-80
2022/10/17 03:57:11;;;;;;;33.27;30.80;;;;;;;;;;5138886;27;20434;-79
2022/10/17 03:59:38;;;;;;;32.53;30.33;;;;;;;;;;5139535;27;20443;-79
2022/10/17 04:02:07;;;;;;;31.77;29.87;;;;;;;;;;5137549;27;20800;-79
2022/10/17 04:04:34;;;;;;;32.77;30.27;;;;;;;;;;5138262;27;20467;-80
2022/10/17 04:07:02;;;;;;;32.60;30.37;;;;;;;;;;5138792;27;20451;-80
2022/10/17 04:09:29;;;;;;;32.47;30.13;;;;;;;;;;5138078;27;20831;-81
2022/10/17 04:11:57;;;;;;;32.77;30.47;;;;;;;;;;5137944;27;20444;-80
2022/10/17 04:14:24;;;;;;;32.63;30.50;;;;;;;;;;5137947;27;20492;-81
2022/10/17 04:16:52;;;;;;;32.73;30.40;;;;;;;;;;5137893;27;20946;-80
2022/10/17 04:19:21;;;;;;;31.80;29.70;;;;;;;;;;5137927;27;20563;-80
2022/10/17 04:21:48;;;;;;;32.10;29.83;;;;;;;;;;5137727;27;20812;-79
2022/10/17 04:24:15;;;;;;;33.00;30.70;;;;;;;;;;5138052;27;20484;-80
2022/10/17 04:26:42;;;;;;;33.10;30.50;;;;;;;;;;5138672;27;20444;-81
2022/10/17 04:29:10;;;;;;;32.40;30.00;;;;;;;;;;5137791;27;20452;-80
2022/10/17 04:31:37;;;;;;;32.50;30.13;;;;;;;;;;5137166;27;20922;-80
2022/10/17 04:34:04;;;;;;;34.37;31.33;;;;;;;;;;5136756;27;20886;-81
2022/10/17 04:36:33;;;;;;;32.43;30.13;;;;;;;;;;5138312;27;20454;-80
2022/10/17 04:39:02;;;;;;;33.00;30.80;;;;;;;;;;5137576;27;20462;-79
2022/10/17 04:41:29;;;;;;;31.93;29.97;;;;;;;;;;5137281;27;20446;-80
2022/10/17 04:43:56;;;;;;;32.20;30.10;;;;;;;;;;5136931;27;20461;-81
2022/10/17 04:46:24;;;;;;;31.50;29.60;;;;;;;;;;5137536;27;20450;-80
2022/10/17 04:48:51;;;;;;;31.73;29.50;;;;;;;;;;5137832;27;20455;-80
2022/10/17 04:51:19;;;;;;;31.50;29.40;;;;;;;;;;5137585;27;20870;-80
2022/10/17 04:53:48;;;;;;;34.23;32.00;;;;;;;;;;5137956;27;20483;-80
2022/10/17 04:56:17;;;;;;;32.37;30.23;;;;;;;;;;5137555;27;20489;-80
2022/10/17 04:58:44;;;;;;;32.13;29.90;;;;;;;;;;5136742;27;20454;-80
2022/10/17 05:01:14;;;;;;;32.67;30.57;;;;;;;;;;5137357;27;20449;-79
2022/10/17 05:03:42;;;;;;;32.80;30.43;;;;;;;;;;5136121;27;20461;-81
2022/10/17 05:06:10;;;;;;;32.77;30.77;;;;;;;;;;5137314;28;20460;-79
2022/10/17 05:08:37;;;;;;;32.57;30.47;;;;;;;;;;5136605;27;20428;-79
2022/10/17 05:11:07;;;;;;;32.37;30.27;;;;;;;;;;5136112;28;20455;-79
2022/10/17 05:13:34;;;;;;;32.43;30.37;;;;;;;;;;5136974;27;21005;-80
2022/10/17 05:16:02;;;;;;;34.63;31.50;;;;;;;;;;5137337;28;20832;-80
2022/10/17 05:18:29;;;;;;;31.90;29.80;;;;;;;;;;5136968;28;20454;-81
2022/10/17 05:20:57;;;;;;;31.70;29.70;;;;;;;;;;5138067;27;20478;-81
2022/10/17 05:23:25;;;;;;;33.03;30.67;;;;;;;;;;5141363;27;20505;-81
2022/10/17 05:25:55;;;;;;;33.63;31.50;;;;;;;;;;5141358;27;20457;-80
2022/10/17 05:28:24;;;;;;;32.43;30.27;;;;;;;;;;5141483;27;20456;-81
2022/10/17 05:30:52;;;;;;;32.40;30.30;;;;;;;;;;5141416;27;20414;-81
2022/10/17 05:33:19;;;;;;;32.80;30.70;;;;;;;;;;5140106;27;20496;-80
2022/10/17 05:35:47;;;;;;;32.43;30.23;;;;;;;;;;5140870;27;20504;-81
2022/10/17 05:38:14;;;;;;;34.47;32.07;;;;;;;;;;5141747;27;20431;-81
2022/10/17 05:40:41;;;;;;;33.30;31.17;;;;;;;;;;5141388;27;20455;-79
2022/10/17 05:43:09;;;;;;;32.87;30.40;;;;;;;;;;5140294;27;20474;-80
2022/10/17 05:45:38;;;;;;;32.10;30.00;;;;;;;;;;5141336;27;20426;-81
2022/10/17 05:48:05;;;;;;;33.27;30.80;;;;;;;;;;5141081;27;20473;-80
2022/10/17 05:50:32;;;;;;;32.13;30.03;;;;;;;;;;5140574;27;20443;-81
2022/10/17 05:52:59;;;;;;;32.67;30.57;;;;;;;;;;5140196;27;20475;-80
2022/10/17 05:55:27;;;;;;;33.33;31.07;;;;;;;;;;5139973;27;20441;-81
2022/10/17 05:57:55;;;;;;;31.87;29.80;;;;;;;;;;5140749;27;20456;-79
2022/10/17 06:00:26;;;;;;;33.60;31.03;;;;;;;;;;5140345;27;20466;-83
2022/10/17 06:02:55;;;;;;;32.03;29.93;;;;;;;;;;5139839;27;20469;-81
2022/10/17 06:05:22;;;;;;;31.37;29.30;;;;;;;;;;5139934;27;20444;-81
2022/10/17 06:07:51;;;;;;;31.47;29.47;;;;;;;;;;5141021;27;20439;-80
2022/10/17 06:10:19;;;;;;;33.30;31.23;;;;;;;;;;5140479;27;20452;-80
2022/10/17 06:12:46;;;;;;;31.37;29.27;;;;;;;;;;5138762;27;20477;-80
2022/10/17 06:15:13;;;;;;;31.40;29.60;;;;;;;;;;5138617;28;20972;-81
2022/10/17 06:17:41;;;;;;;31.63;29.73;;;;;;;;;;5137873;27;20467;-79
2022/10/17 06:20:10;;;;;;;33.07;31.10;;;;;;;;;;5138362;27;20446;-82
2022/10/17 06:22:37;;;;;;;32.53;30.33;;;;;;;;;;5135448;27;20471;-77
2022/10/17 06:25:05;;;;;;;32.30;30.20;;;;;;;;;;5135303;28;20414;-78
2022/10/17 06:27:32;;;;;;;32.73;30.77;;;;;;;;;;5136398;28;20880;-79
2022/10/17 06:30:00;;;;;;;32.57;30.37;;;;;;;;;;5138331;27;20451;-79
2022/10/17 06:32:27;;;;;;;31.07;29.27;;;;;;;;;;5136774;27;20468;-81
2022/10/17 06:34:54;;;;;;;32.80;30.80;;;;;;;;;;5135977;28;20494;-78
2022/10/17 06:37:23;;;;;;;32.37;30.30;;;;;;;;;;5135413;27;20854;-80
2022/10/17 06:39:50;;;;;;;33.83;31.57;;;;;;;;;;5135872;27;20470;-78
2022/10/17 06:42:18;;;;;;;33.63;31.63;;;;;;;;;;5134942;27;20450;-79
2022/10/17 06:44:45;;;;;;;33.60;31.50;;;;;;;;;;5135429;27;20421;-78
2022/10/17 06:47:13;;;;;;;32.00;30.17;;;;;;;;;;5135633;27;20451;-78
2022/10/17 06:49:40;;;;;;;30.97;29.10;;;;;;;;;;5135222;27;20444;-78
2022/10/17 06:52:07;;;;;;;31.57;29.37;;;;;;;;;;5134283;27;20462;-78
2022/10/17 06:54:36;;;;;;;31.60;29.67;;;;;;;;;;5135295;28;20474;-77
2022/10/17 06:57:03;;;;;;;31.30;29.50;;;;;;;;;;5135482;27;20455;-78
2022/10/17 06:59:30;;;;;;;31.50;29.43;;;;;;;;;;5135243;27;20778;-78
2022/10/17 07:01:58;;;;;;;31.67;29.40;;;;;;;;;;5134213;27;20444;-78
2022/10/17 07:04:26;;;;;;;29.23;27.37;;;;;;;;;;5135203;27;20485;-76
2022/10/17 07:06:53;;;;;;;30.83;28.93;;;;;;;;;;5134303;28;20546;-76
2022/10/17 07:09:21;;;;;;;30.00;27.90;;;;;;;;;;5134475;28;20813;-76
2022/10/17 07:11:50;;;;;;;31.23;29.23;;;;;;;;;;5133854;27;20544;-76
2022/10/17 07:14:17;;;;;;;30.07;28.17;;;;;;;;;;5113077;27;565032;-76
2022/10/17 07:16:45;;;;;;;29.03;27.33;;;;;;;;;;5135271;27;20941;-76
2022/10/17 07:19:12;;;;;;;29.23;27.30;;;;;;;;;;5135229;27;20965;-76
2022/10/17 07:21:39;;;;;;;30.33;28.53;;;;;;;;;;5135319;27;20449;-76
2022/10/17 07:24:07;;;;;;;30.70;28.90;;;;;;;;;;5135477;27;20488;-76
2022/10/17 07:26:34;;;;;;;29.13;27.57;;;;;;;;;;5135238;27;21233;-76
2022/10/17 07:29:05;;;;;;;29.97;28.27;;;;;;;;;;5135275;27;20448;-77
2022/10/17 07:31:32;;;;;;;29.17;27.43;;;;;;;;;;5134574;27;20480;-76
2022/10/17 07:34:00;;;;;;;30.00;28.07;;;;;;;;;;5134352;27;20481;-76
2022/10/17 07:36:27;;;;;;;28.77;27.17;;;;;;;;;;5134949;27;20475;-77
2022/10/17 07:38:55;;;;;;;28.60;27.00;;;;;;;;;;5134995;27;20971;-76
2022/10/17 07:41:22;;;;;;;28.13;26.60;;;;;;;;;;5133593;27;20962;-76
2022/10/17 07:43:49;;;;;;;28.73;26.40;;;;;;;;;;5133621;27;21002;-76
2022/10/17 07:46:18;;;;;;;28.27;26.70;;;;;;;;;;5135207;27;20426;-77
2022/10/17 07:48:46;;;;;;;26.73;25.23;;;;;;;;;;5134786;27;20967;-77
2022/10/17 07:51:15;;;;;;;27.17;25.60;;;;;;;;;;5136178;27;20498;-85
2022/10/17 07:53:43;;;;;;;26.80;25.10;;;;;;;;;;5139748;27;20980;-85
2022/10/17 07:56:11;;;;;;;25.77;24.37;;;;;;;;;;5139395;27;20457;-85
2022/10/17 07:58:39;;;;;;;25.40;24.03;;;;;;;;;;5138646;27;20450;-85
2022/10/17 08:01:07;;;;;;;26.57;24.60;;;;;;;;;;5135655;27;20452;-76
2022/10/17 08:03:36;;;;;;;25.10;23.80;;;;;;;;;;5134091;27;20493;-76
2022/10/17 08:06:05;;;;;;;24.67;23.47;;;;;;;;;;5134704;27;20471;-76
2022/10/17 08:08:32;;;;;;;26.27;24.97;;;;;;;;;;5134626;27;20427;-78
2022/10/17 08:11:03;;;;;;;26.70;25.20;;;;;;;;;;5133747;27;20947;-76
2022/10/17 08:13:30;;;;;;;25.97;24.50;;;;;;;;;;5134294;27;20792;-77
2022/10/17 08:15:59;;;;;;;24.47;23.23;;;;;;;;;;5133991;27;20462;-76
2022/10/17 08:18:27;;;;;;;26.20;24.70;;;;;;;;;;5132415;27;20764;-77
2022/10/17 08:20:56;;;;;;;26.00;24.43;;;;;;;;;;5133903;27;20431;-76
2022/10/17 08:23:23;;;;;;;24.83;23.33;;;;;;;;;;5133789;27;20447;-76
2022/10/17 08:25:50;;;;;;;25.07;23.70;;;;;;;;;;5134253;27;20437;-76
2022/10/17 08:28:18;;;;;;;25.00;23.20;;;;;;;;;;5134048;27;20445;-75
2022/10/17 08:30:45;;;;;;;24.13;22.93;;;;;;;;;;5134658;27;20418;-77
2022/10/17 08:33:12;;;;;;;24.50;23.20;;;;;;;;;;5133354;27;20470;-76
2022/10/17 08:35:40;;;;;;;24.40;23.10;;;;;;;;;;5137208;27;20492;-76
2022/10/17 08:38:09;;;;;;;24.50;23.10;;;;;;;;;;5136945;27;20465;-81
2022/10/17 08:40:41;;;;;;;24.50;23.10;;;;;;;;;;5137386;27;20942;-84
2022/10/17 08:43:35;;;;;;;24.10;22.50;;;;;;;;;;5133067;27;20472;-76
2022/10/17 08:46:04;;;;;;;24.50;23.03;;;;;;;;;;5108942;27;20439;-76
2022/10/17 08:48:33;;;;;;;23.40;22.20;;;;;;;;;;5133464;27;20803;-76
2022/10/17 08:51:03;;;;;;;24.00;22.60;;;;;;;;;;5133423;27;20433;-76
2022/10/17 08:53:32;;;;;;;23.70;22.50;;;;;;;;;;5133501;27;20822;-75
2022/10/17 08:56:03;;;;;;;23.70;22.30;;;;;;;;;;5133151;27;20484;-76
2022/10/17 08:58:33;;;;;;;23.17;22.07;;;;;;;;;;5133139;27;20831;-77
2022/10/17 09:01:05;;;;;;;22.43;21.33;;;;;;;;;;5132780;27;20473;-76
2022/10/17 09:03:38;;;;;;;22.13;20.93;;;;;;;;;;5133632;27;20485;-75
2022/10/17 09:06:12;;;;;;;22.23;21.13;;;;;;;;;;5135442;27;20459;-86
2022/10/17 09:08:45;;;;;;;23.57;22.03;;;;;;;;;;5134675;27;20445;-84
2022/10/17 09:11:17;;;;;;;23.03;21.33;;;;;;;;;;5135823;28;20814;-84
2022/10/17 09:13:53;;;;;;;22.70;21.60;;;;;;;;;;5135256;27;20854;-84
2022/10/17 09:16:37;;;;;;;23.60;22.03;;;;;;;;;;5136457;27;20448;-83
2022/10/17 09:19:09;;;;;;;23.17;21.93;;;;;;;;;;5135206;28;20447;-78
2022/10/17 09:21:40;;;;;;;22.77;21.37;;;;;;;;;;5135786;28;20460;-79
2022/10/17 09:24:12;;;;;;;23.90;22.50;;;;;;;;;;5135372;28;20448;-80
2022/10/17 09:26:40;;;;;;;24.43;23.00;;;;;;;;;;5136445;28;20804;-80
2022/10/17 09:29:15;;;;;;;21.80;20.50;;;;;;;;;;5135850;28;20457;-80
2022/10/17 09:31:44;;;;;;;23.60;22.00;;;;;;;;;;5134569;27;20440;-79
2022/10/17 09:34:12;;;;;;;22.40;20.97;;;;;;;;;;5135737;28;20809;-79
2022/10/17 09:36:41;;;;;;;22.83;21.47;;;;;;;;;;5135644;28;20457;-78
2022/10/17 09:39:13;;;;;;;22.77;21.40;;;;;;;;;;5135777;28;20457;-79
2022/10/17 09:41:41;;;;;;;22.30;21.20;;;;;;;;;;5135427;28;20442;-80
2022/10/17 09:44:17;;;;;;;23.20;22.00;;;;;;;;;;5134735;27;20485;-79
2022/10/17 09:46:47;;;;;;;22.40;21.20;;;;;;;;;;5136104;28;20545;-79
2022/10/17 09:49:17;;;;;;;21.73;20.63;;;;;;;;;;5135306;28;20433;-79
2022/10/17 09:51:45;;;;;;;21.70;20.40;;;;;;;;;;5135465;28;20460;-79
2022/10/17 09:54:18;;;;;;;22.40;21.17;;;;;;;;;;5135441;27;20444;-80
2022/10/17 09:56:57;;;;;;;21.77;20.57;;;;;;;;;;5135333;28;20406;-79
2022/10/17 09:59:31;;;;;;;22.00;20.50;;;;;;;;;;5135785;28;20408;-79
2022/10/17 10:02:08;;;;;;;21.03;19.93;;;;;;;;;;5135307;28;20428;-79
2022/10/17 10:04:35;;;;;;;22.80;21.60;;;;;;;;;;5135155;27;20468;-80
2022/10/17 10:07:03;;;;;;;25.03;23.43;;;;;;;;;;5137258;27;20424;-79
2022/10/17 10:09:34;;;;;;;21.60;20.10;;;;;;;;;;5139477;27;20495;-80
2022/10/17 10:12:03;;;;;;;21.87;20.73;;;;;;;;;;5139164;27;20763;-80
2022/10/17 10:14:32;;;;;;;21.63;20.40;;;;;;;;;;5139060;27;20485;-80
2022/10/17 10:17:00;;;;;;;22.10;20.90;;;;;;;;;;5138708;27;20537;-81
2022/10/17 10:19:30;;;;;;;21.63;20.33;;;;;;;;;;5138943;27;20412;-80
2022/10/17 10:21:59;;;;;;;21.23;20.20;;;;;;;;;;5139089;27;20894;-79
2022/10/17 10:24:26;;;;;;;20.70;19.60;;;;;;;;;;5138659;27;20442;-79
2022/10/17 10:26:57;;;;;;;21.07;19.70;;;;;;;;;;5138491;27;20419;-80
2022/10/17 10:29:27;;;;;;;21.67;20.47;;;;;;;;;;5139364;27;20461;-79
2022/10/17 10:31:55;;;;;;;21.20;20.10;;;;;;;;;;5138353;27;20439;-79
2022/10/17 10:34:25;;;;;;;22.47;21.13;;;;;;;;;;5138044;27;20485;-79
2022/10/17 10:37:00;;;;;;;20.97;19.77;;;;;;;;;;5138328;27;20929;-80
2022/10/17 10:39:39;;;;;;;20.73;19.57;;;;;;;;;;5138926;27;20680;-80
2022/10/17 10:42:10;;;;;;;21.10;19.90;;;;;;;;;;5138207;27;20444;-80
2022/10/17 10:44:39;;;;;;;21.47;20.17;;;;;;;;;;5138018;27;20473;-79
2022/10/17 10:47:18;;;;;;;20.50;19.40;;;;;;;;;;5138359;27;20451;-79
2022/10/17 10:49:45;;;;;;;20.80;19.47;;;;;;;;;;5137206;27;20991;-77
2022/10/17 10:52:16;;;;;;;20.90;19.70;;;;;;;;;;5136028;27;20419;-77
2022/10/17 10:54:46;;;;;;;19.80;18.80;;;;;;;;;;5136302;27;20442;-77
2022/10/17 10:57:19;;;;;;;20.40;19.20;;;;;;;;;;5136138;27;20438;-77
2022/10/17 10:59:50;;;;;;;20.73;18.73;;;;;;;;;;5135233;27;20473;-77
2022/10/17 11:02:23;;;;;;;22.13;20.70;;;;;;;;;;5135454;27;20903;-77
2022/10/17 11:04:53;;;;;;;20.40;19.30;;;;;;;;;;5136670;27;20418;-77
2022/10/17 11:07:22;;;;;;;19.57;18.40;;;;;;;;;;5136544;27;20453;-77
2022/10/17 11:09:54;;;;;;;21.10;19.90;;;;;;;;;;5136244;27;20458;-77
2022/10/17 11:12:25;;;;;;;20.77;19.43;;;;;;;;;;5134426;27;20460;-77
2022/10/17 11:14:54;;;;;;;22.23;20.77;;;;;;;;;;5140847;27;20875;-85
2022/10/17 11:17:27;;;;;;;20.60;19.40;;;;;;;;;;5139905;27;20786;-86
2022/10/17 11:19:59;;;;;;;21.50;19.87;;;;;;;;;;5138684;27;20452;-75
2022/10/17 11:22:28;;;;;;;20.83;19.57;;;;;;;;;;5134093;27;20499;-75
2022/10/17 11:24:59;;;;;;;21.40;20.17;;;;;;;;;;5135566;27;20446;-78
2022/10/17 11:27:29;;;;;;;21.43;20.13;;;;;;;;;;5135256;27;20434;-75
2022/10/17 11:29:57;;;;;;;20.67;19.57;;;;;;;;;;5134583;27;20427;-74
2022/10/17 11:32:27;;;;;;;21.30;20.00;;;;;;;;;;5134045;27;20462;-74
2022/10/17 11:34:57;;;;;;;23.10;21.20;;;;;;;;;;5133735;27;20491;-74
2022/10/17 11:37:27;;;;;;;21.20;19.80;;;;;;;;;;5134769;27;20477;-75
2022/10/17 11:39:55;;;;;;;22.93;21.53;;;;;;;;;;5134617;27;20420;-75
2022/10/17 11:42:25;;;;;;;21.00;19.80;;;;;;;;;;5134251;27;20446;-73
2022/10/17 11:44:56;;;;;;;21.20;19.80;;;;;;;;;;5134774;27;20848;-74
2022/10/17 11:47:30;;;;;;;22.07;20.77;;;;;;;;;;5135099;27;20433;-73
2022/10/17 11:49:59;;;;;;;21.93;20.57;;;;;;;;;;5134283;27;20496;-74
2022/10/17 11:52:34;;;;;;;21.60;20.30;;;;;;;;;;5134172;27;20480;-74
2022/10/17 11:55:03;;;;;;;21.40;19.80;;;;;;;;;;5134950;27;20846;-75
2022/10/17 11:57:38;;;;;;;22.13;20.83;;;;;;;;;;5134840;27;20813;-74
2022/10/17 12:00:22;;;;;;;20.87;19.60;;;;;;;;;;5134145;27;20980;-76
2022/10/17 12:02:54;;;;;;;21.63;20.17;;;;;;;;;;5133801;27;20475;-74
2022/10/17 12:05:25;;;;;;;21.27;19.93;;;;;;;;;;5134648;27;20887;-74
2022/10/17 12:07:56;;;;;;;22.33;20.70;;;;;;;;;;5134271;27;20876;-74
2022/10/17 12:10:30;;;;;;;22.10;20.53;;;;;;;;;;5113367;27;20938;-75
2022/10/17 12:12:57;;;;;;;21.77;20.50;;;;;;;;;;5112740;28;20471;-75
2022/10/17 12:15:29;;;;;;;22.07;20.67;;;;;;;;;;5113816;28;20482;-76
2022/10/17 12:17:58;;;;;;;23.10;21.60;;;;;;;;;;5113615;28;20449;-74
2022/10/17 12:20:27;;;;;;;21.40;20.07;;;;;;;;;;5112976;27;20478;-75
2022/10/17 12:22:55;;;;;;;21.50;20.20;;;;;;;;;;5112902;28;20471;-74
2022/10/17 12:25:25;;;;;;;23.90;22.30;;;;;;;;;;5113404;28;20442;-74
2022/10/17 12:28:03;;;;;;;22.03;20.43;;;;;;;;;;5113549;28;20447;-74
2022/10/17 12:30:32;;;;;;;22.23;20.60;;;;;;;;;;5113415;28;20442;-75
2022/10/17 12:33:02;;;;;;;22.67;21.17;;;;;;;;;;5112341;27;20494;-74
2022/10/17 12:35:30;;;;;;;21.97;20.50;;;;;;;;;;5114026;28;20461;-75
2022/10/17 12:38:14;;;;;;;21.60;20.30;;;;;;;;;;5113500;28;20954;-75
2022/10/17 12:40:49;;;;;;;21.63;20.10;;;;;;;;;;5113412;28;20486;-74
2022/10/17 12:43:47;;;;;;;21.03;19.73;;;;;;;;;;5112925;28;20457;-75
2022/10/17 12:46:35;;;;;;;22.93;20.87;;;;;;;;;;5090405;28;20972;-75
2022/10/17 12:49:04;;;;;;;22.80;21.30;;;;;;;;;;5110792;28;20957;-75
2022/10/17 12:51:52;;;;;;;20.53;19.33;;;;;;;;;;5112650;28;20439;-74
2022/10/17 12:54:20;;;;;;;21.83;20.53;;;;;;;;;;5112809;28;20482;-74
2022/10/17 12:56:49;;;;;;;21.67;20.40;;;;;;;;;;5112480;27;20491;-75
2022/10/17 12:59:18;;;;;;;24.03;22.10;;;;;;;;;;5112803;28;20934;-74
2022/10/17 13:01:47;;;;;;;22.37;20.70;;;;;;;;;;5112811;28;20461;-75
2022/10/17 13:04:15;;;;;;;22.40;21.07;;;;;;;;;;5112952;28;20517;-75
2022/10/17 13:06:45;;;;;;;21.97;20.67;;;;;;;;;;5112526;27;20834;-74
2022/10/17 13:09:18;;;;;;;22.90;21.60;;;;;;;;;;5113124;28;20823;-74
2022/10/17 13:11:50;;;;;;;22.77;21.17;;;;;;;;;;5112379;28;20541;-74
2022/10/17 13:14:20;;;;;;;20.90;19.70;;;;;;;;;;5112882;28;20507;-75
2022/10/17 13:16:52;;;;;;;22.97;20.97;;;;;;;;;;5112963;28;20539;-74
2022/10/17 13:19:22;;;;;;;21.73;20.23;;;;;;;;;;5112439;27;20508;-74
2022/10/17 13:21:54;;;;;;;22.67;21.40;;;;;;;;;;5112096;28;20493;-74
2022/10/17 13:24:22;;;;;;;23.23;21.40;;;;;;;;;;5111654;28;20470;-75
2022/10/17 13:26:51;;;;;;;21.43;20.03;;;;;;;;;;5112971;28;20433;-75
2022/10/17 13:29:20;;;;;;;21.43;20.03;;;;;;;;;;5112029;27;20469;-76
2022/10/17 13:31:53;;;;;;;22.30;20.80;;;;;;;;;;5112247;28;20442;-75
2022/10/17 13:34:22;;;;;;;21.87;20.33;;;;;;;;;;5112262;28;20478;-74
2022/10/17 13:36:51;;;;;;;22.70;21.20;;;;;;;;;;5112840;28;20474;-74
2022/10/17 13:39:21;;;;;;;22.07;20.27;;;;;;;;;;5112676;28;20927;-74
2022/10/17 13:41:48;;;;;;;22.27;20.97;;;;;;;;;;5113919;28;20771;-75
2022/10/17 13:44:18;;;;;;;22.43;21.07;;;;;;;;;;5116318;27;20457;-76
2022/10/17 13:46:46;;;;;;;21.97;20.63;;;;;;;;;;5116789;28;20447;-74
2022/10/17 13:49:17;;;;;;;22.50;21.03;;;;;;;;;;5116696;28;20425;-75
2022/10/17 13:51:45;;;;;;;22.53;20.73;;;;;;;;;;5116467;28;20455;-75
2022/10/17 13:54:20;;;;;;;21.83;20.50;;;;;;;;;;5115916;27;20940;-75
2022/10/17 13:56:47;;;;;;;21.03;19.83;;;;;;;;;;5116361;28;20482;-75
2022/10/17 13:59:23;;;;;;;21.90;20.50;;;;;;;;;;5116505;28;20838;-74
2022/10/17 14:01:51;;;;;;;21.57;20.30;;;;;;;;;;5115765;28;20451;-74
2022/10/17 14:04:18;;;;;;;22.10;20.50;;;;;;;;;;5115752;27;20521;-74
2022/10/17 14:06:46;;;;;;;21.13;19.83;;;;;;;;;;5116362;28;20442;-77
2022/10/17 14:09:19;;;;;;;21.93;20.73;;;;;;;;;;5123983;28;20443;-84
2022/10/17 14:11:57;;;;;;;22.80;20.80;;;;;;;;;;5124477;28;20391;-83
2022/10/17 14:14:26;;;;;;;22.40;21.00;;;;;;;;;;5123749;27;20469;-83
2022/10/17 14:16:53;;;;;;;21.57;20.27;;;;;;;;;;5124954;28;20463;-83
2022/10/17 14:19:24;;;;;;;22.33;20.80;;;;;;;;;;5125530;28;20454;-85
2022/10/17 14:21:53;;;;;;;22.27;20.40;;;;;;;;;;5125412;28;20451;-80
2022/10/17 14:24:28;;;;;;;23.40;20.90;;;;;;;;;;5118023;28;20442;-74
2022/10/17 14:26:57;;;;;;;22.53;21.00;;;;;;;;;;5119968;27;20432;-81
2022/10/17 14:29:27;;;;;;;21.63;20.23;;;;;;;;;;5120433;28;20868;-75